Terminal Aerodrome Forecast
Issued by NWS

Home | Current Version | Previous Version | Graphics & Text | Print | Product List | Glossary On
Versions: 1 2 3 4 5 6 7 8 9 10 11 12 13 14 15 16 17 18
000
FTUS43 KIWX 230500
TAFSBN
TAF
KSBN 230538Z 2306/2406 19010KT P6SM VCSH OVC025 WS020/23045KT
     FM230800 18010KT 3SM -SHRA BR OVC020
     FM231400 17011KT 5SM BR BKN020
     FM232000 13010KT 3SM BR VCSH OVC008
     FM240000 13012KT 2SM RA BR OVC005 WS020/18050KT=

USA.gov is the U.S. government's official web portal to all federal, state and local government web resources and services.